Terminal Aerodrome Forecast
Issued by NWS Wilmington, OH

Current Version | Previous Version | Graphics & Text | Print | Product List | Glossary On
Versions: 1 2 3 4 5 6 7 8 9 10 11 12 13 14 15 16 17 18 19 20 21 22 23 24 25 26 27
000
FTUS41 KILN 271100
TAFILN
TAF
KILN 271138Z 2712/2812 24008KT 4SM BR BKN003
     FM271300 23010KT P6SM VCSH SCT020 BKN100
      TEMPO 2713/2715 BKN025
     FM271600 26012G20KT P6SM -SHRA VCTS BKN035CB
     FM272100 28014G22KT P6SM VCSH BKN040
     FM280000 28010KT P6SM SCT030 BKN250=

USA.gov is the U.S. government's official web portal to all federal, state and local government web resources and services.